sensor_id;sensor_type;location;lat;lon;timestamp;temperature;humidity
54260;DHT22;40172;53.022;7.012;2023-11-21T00:01:50;8.20;99.90
54260;DHT22;40172;53.022;7.012;2023-11-21T00:04:16;8.30;99.90
54260;DHT22;40172;53.022;7.012;2023-11-21T00:06:41;8.30;99.90
54260;DHT22;40172;53.022;7.012;2023-11-21T00:09:07;8.30;99.90
54260;DHT22;40172;53.022;7.012;2023-11-21T00:11:34;8.30;99.90
54260;DHT22;40172;53.022;7.012;2023-11-21T00:13:59;8.30;99.90
54260;DHT22;40172;53.022;7.012;2023-11-21T00:16:25;8.30;99.90
54260;DHT22;40172;53.022;7.012;2023-11-21T00:18:50;8.30;99.90
54260;DHT22;40172;53.022;7.012;2023-11-21T00:21:16;8.20;99.90
54260;DHT22;40172;53.022;7.012;2023-11-21T00:23:42;8.30;99.90
54260;DHT22;40172;53.022;7.012;2023-11-21T00:26:08;8.60;99.90
54260;DHT22;40172;53.022;7.012;2023-11-21T00:28:33;8.20;99.90
54260;DHT22;40172;53.022;7.012;2023-11-21T00:30:58;8.20;99.90
54260;DHT22;40172;53.022;7.012;2023-11-21T00:33:24;9.20;99.90
54260;DHT22;40172;53.022;7.012;2023-11-21T00:35:50;8.20;99.90
54260;DHT22;40172;53.022;7.012;2023-11-21T00:38:16;8.20;99.90
54260;DHT22;40172;53.022;7.012;2023-11-21T00:40:45;8.90;99.90
54260;DHT22;40172;53.022;7.012;2023-11-21T00:43:10;8.20;99.90
54260;DHT22;40172;53.022;7.012;2023-11-21T00:45:36;8.20;99.90
54260;DHT22;40172;53.022;7.012;2023-11-21T00:48:02;8.30;99.90
54260;DHT22;40172;53.022;7.012;2023-11-21T00:50:27;8.20;99.90
54260;DHT22;40172;53.022;7.012;2023-11-21T00:52:53;8.30;99.90
54260;DHT22;40172;53.022;7.012;2023-11-21T00:55:18;8.80;99.90
54260;DHT22;40172;53.022;7.012;2023-11-21T00:57:44;8.30;99.90
54260;DHT22;40172;53.022;7.012;2023-11-21T01:00:10;8.30;99.90
54260;DHT22;40172;53.022;7.012;2023-11-21T01:02:43;8.30;99.90
54260;DHT22;40172;53.022;7.012;2023-11-21T01:05:12;8.30;99.90
54260;DHT22;40172;53.022;7.012;2023-11-21T01:07:38;8.30;99.90
54260;DHT22;40172;53.022;7.012;2023-11-21T01:10:04;8.30;99.90
54260;DHT22;40172;53.022;7.012;2023-11-21T01:12:34;8.30;99.90
54260;DHT22;40172;53.022;7.012;2023-11-21T01:14:59;8.30;99.90
54260;DHT22;40172;53.022;7.012;2023-11-21T01:17:26;8.30;99.90
54260;DHT22;40172;53.022;7.012;2023-11-21T01:19:51;8.40;99.90
54260;DHT22;40172;53.022;7.012;2023-11-21T01:22:17;9.20;99.90
54260;DHT22;40172;53.022;7.012;2023-11-21T01:24:47;8.40;99.90
54260;DHT22;40172;53.022;7.012;2023-11-21T01:27:13;8.40;99.90
54260;DHT22;40172;53.022;7.012;2023-11-21T01:29:38;8.40;99.90
54260;DHT22;40172;53.022;7.012;2023-11-21T01:32:04;8.40;99.90
54260;DHT22;40172;53.022;7.012;2023-11-21T01:34:29;8.50;99.90
54260;DHT22;40172;53.022;7.012;2023-11-21T01:36:56;8.40;99.90
54260;DHT22;40172;53.022;7.012;2023-11-21T01:39:21;8.50;99.90
54260;DHT22;40172;53.022;7.012;2023-11-21T01:41:52;8.40;99.90
54260;DHT22;40172;53.022;7.012;2023-11-21T01:44:17;8.50;99.90
54260;DHT22;40172;53.022;7.012;2023-11-21T01:46:45;8.50;99.90
54260;DHT22;40172;53.022;7.012;2023-11-21T01:49:10;8.50;99.90
54260;DHT22;40172;53.022;7.012;2023-11-21T01:51:39;8.50;99.90
54260;DHT22;40172;53.022;7.012;2023-11-21T01:54:04;8.50;99.90
54260;DHT22;40172;53.022;7.012;2023-11-21T01:56:30;8.50;99.90
54260;DHT22;40172;53.022;7.012;2023-11-21T01:58:57;8.50;99.90
54260;DHT22;40172;53.022;7.012;2023-11-21T02:01:22;8.50;99.90
54260;DHT22;40172;53.022;7.012;2023-11-21T02:03:48;8.50;99.90
54260;DHT22;40172;53.022;7.012;2023-11-21T02:06:13;8.50;99.90
54260;DHT22;40172;53.022;7.012;2023-11-21T02:08:39;8.50;99.90
54260;DHT22;40172;53.022;7.012;2023-11-21T02:11:05;8.50;99.90
54260;DHT22;40172;53.022;7.012;2023-11-21T02:13:31;8.50;99.90
54260;DHT22;40172;53.022;7.012;2023-11-21T02:15:57;8.50;99.90
54260;DHT22;40172;53.022;7.012;2023-11-21T02:18:23;8.50;99.90
54260;DHT22;40172;53.022;7.012;2023-11-21T02:20:48;8.50;99.90
54260;DHT22;40172;53.022;7.012;2023-11-21T02:23:14;8.50;99.90
54260;DHT22;40172;53.022;7.012;2023-11-21T02:25:40;8.50;99.90
54260;DHT22;40172;53.022;7.012;2023-11-21T02:28:07;9.30;99.90
54260;DHT22;40172;53.022;7.012;2023-11-21T02:30:33;8.50;99.90
54260;DHT22;40172;53.022;7.012;2023-11-21T02:32:59;8.50;99.90
54260;DHT22;40172;53.022;7.012;2023-11-21T02:35:25;9.40;99.90
54260;DHT22;40172;53.022;7.012;2023-11-21T02:37:54;8.50;99.90
54260;DHT22;40172;53.022;7.012;2023-11-21T02:40:19;8.50;99.90
54260;DHT22;40172;53.022;7.012;2023-11-21T02:42:50;8.30;99.90
54260;DHT22;40172;53.022;7.012;2023-11-21T02:45:16;8.50;99.90
54260;DHT22;40172;53.022;7.012;2023-11-21T02:47:42;8.60;99.90
54260;DHT22;40172;53.022;7.012;2023-11-21T02:50:08;8.50;99.90
54260;DHT22;40172;53.022;7.012;2023-11-21T02:52:34;8.60;99.90
54260;DHT22;40172;53.022;7.012;2023-11-21T02:55:01;8.50;99.90
54260;DHT22;40172;53.022;7.012;2023-11-21T02:57:26;8.60;99.90
54260;DHT22;40172;53.022;7.012;2023-11-21T02:59:52;8.60;99.90
54260;DHT22;40172;53.022;7.012;2023-11-21T03:02:17;8.60;99.90
54260;DHT22;40172;53.022;7.012;2023-11-21T03:04:43;8.60;99.90
54260;DHT22;40172;53.022;7.012;2023-11-21T03:07:09;8.60;99.90
54260;DHT22;40172;53.022;7.012;2023-11-21T03:09:35;8.60;99.90
54260;DHT22;40172;53.022;7.012;2023-11-21T03:12:00;8.80;99.90
54260;DHT22;40172;53.022;7.012;2023-11-21T03:14:26;8.60;99.90
54260;DHT22;40172;53.022;7.012;2023-11-21T03:16:51;8.60;99.90
54260;DHT22;40172;53.022;7.012;2023-11-21T03:19:17;8.60;99.90
54260;DHT22;40172;53.022;7.012;2023-11-21T03:21:42;8.60;99.90
54260;DHT22;40172;53.022;7.012;2023-11-21T03:24:08;8.60;99.90
54260;DHT22;40172;53.022;7.012;2023-11-21T03:26:33;8.60;99.90
54260;DHT22;40172;53.022;7.012;2023-11-21T03:28:59;8.60;99.90
54260;DHT22;40172;53.022;7.012;2023-11-21T03:31:25;8.60;99.90
54260;DHT22;40172;53.022;7.012;2023-11-21T03:33:50;8.70;99.90
54260;DHT22;40172;53.022;7.012;2023-11-21T03:36:16;8.60;99.90
54260;DHT22;40172;53.022;7.012;2023-11-21T03:38:43;8.60;99.90
54260;DHT22;40172;53.022;7.012;2023-11-21T03:41:08;8.60;99.90
54260;DHT22;40172;53.022;7.012;2023-11-21T03:43:37;8.60;99.90
54260;DHT22;40172;53.022;7.012;2023-11-21T03:46:03;8.60;99.90
54260;DHT22;40172;53.022;7.012;2023-11-21T03:48:28;8.60;99.90
54260;DHT22;40172;53.022;7.012;2023-11-21T03:50:54;8.60;99.90
54260;DHT22;40172;53.022;7.012;2023-11-21T03:53:19;8.60;99.90
54260;DHT22;40172;53.022;7.012;2023-11-21T03:55:44;8.60;99.90
54260;DHT22;40172;53.022;7.012;2023-11-21T03:58:10;8.60;99.90
54260;DHT22;40172;53.022;7.012;2023-11-21T04:00:35;8.50;99.90
54260;DHT22;40172;53.022;7.012;2023-11-21T04:03:01;8.60;99.90
54260;DHT22;40172;53.022;7.012;2023-11-21T04:05:26;8.60;99.90
54260;DHT22;40172;53.022;7.012;2023-11-21T04:07:52;8.60;99.90
54260;DHT22;40172;53.022;7.012;2023-11-21T04:10:17;9.00;99.90
54260;DHT22;40172;53.022;7.012;2023-11-21T04:12:43;8.60;99.90
54260;DHT22;40172;53.022;7.012;2023-11-21T04:15:09;8.60;99.90
54260;DHT22;40172;53.022;7.012;2023-11-21T04:17:35;8.50;99.90
54260;DHT22;40172;53.022;7.012;2023-11-21T04:20:02;8.60;99.90
54260;DHT22;40172;53.022;7.012;2023-11-21T04:22:28;9.20;99.90
54260;DHT22;40172;53.022;7.012;2023-11-21T04:24:54;8.60;99.90
54260;DHT22;40172;53.022;7.012;2023-11-21T04:27:21;8.60;99.90
54260;DHT22;40172;53.022;7.012;2023-11-21T04:29:46;8.60;99.90
54260;DHT22;40172;53.022;7.012;2023-11-21T04:32:12;8.60;99.90
54260;DHT22;40172;53.022;7.012;2023-11-21T04:34:38;8.60;99.90
54260;DHT22;40172;53.022;7.012;2023-11-21T04:37:03;9.30;99.90
54260;DHT22;40172;53.022;7.012;2023-11-21T04:39:31;8.60;99.90
54260;DHT22;40172;53.022;7.012;2023-11-21T04:41:57;8.60;99.90
54260;DHT22;40172;53.022;7.012;2023-11-21T04:44:22;8.60;99.90
54260;DHT22;40172;53.022;7.012;2023-11-21T04:46:48;8.60;99.90
54260;DHT22;40172;53.022;7.012;2023-11-21T04:49:14;8.60;99.90
54260;DHT22;40172;53.022;7.012;2023-11-21T04:51:39;8.60;99.90
54260;DHT22;40172;53.022;7.012;2023-11-21T04:54:05;8.60;99.90
54260;DHT22;40172;53.022;7.012;2023-11-21T04:56:31;8.60;99.90
54260;DHT22;40172;53.022;7.012;2023-11-21T04:58:56;8.60;99.90
54260;DHT22;40172;53.022;7.012;2023-11-21T05:01:22;8.60;99.90
54260;DHT22;40172;53.022;7.012;2023-11-21T05:03:48;8.60;99.90
54260;DHT22;40172;53.022;7.012;2023-11-21T05:06:14;8.60;99.90
54260;DHT22;40172;53.022;7.012;2023-11-21T05:08:40;8.50;99.90
54260;DHT22;40172;53.022;7.012;2023-11-21T05:11:05;8.60;99.90
54260;DHT22;40172;53.022;7.012;2023-11-21T05:13:33;8.60;99.90
54260;DHT22;40172;53.022;7.012;2023-11-21T05:15:59;9.00;99.90
54260;DHT22;40172;53.022;7.012;2023-11-21T05:18:25;8.60;99.90
54260;DHT22;40172;53.022;7.012;2023-11-21T05:20:55;8.60;99.90
54260;DHT22;40172;53.022;7.012;2023-11-21T05:23:21;9.70;99.90
54260;DHT22;40172;53.022;7.012;2023-11-21T05:25:46;8.50;99.90
54260;DHT22;40172;53.022;7.012;2023-11-21T05:28:12;8.60;99.90
54260;DHT22;40172;53.022;7.012;2023-11-21T05:30:37;8.60;99.90
54260;DHT22;40172;53.022;7.012;2023-11-21T05:33:04;8.60;99.90
54260;DHT22;40172;53.022;7.012;2023-11-21T05:35:30;8.60;99.90
54260;DHT22;40172;53.022;7.012;2023-11-21T05:37:56;8.60;99.90
54260;DHT22;40172;53.022;7.012;2023-11-21T05:40:22;8.60;99.90
54260;DHT22;40172;53.022;7.012;2023-11-21T05:42:47;8.60;99.90
54260;DHT22;40172;53.022;7.012;2023-11-21T05:45:13;8.70;99.90
54260;DHT22;40172;53.022;7.012;2023-11-21T05:47:39;8.60;99.90
54260;DHT22;40172;53.022;7.012;2023-11-21T05:50:06;8.60;99.90
54260;DHT22;40172;53.022;7.012;2023-11-21T05:52:31;8.60;99.90
54260;DHT22;40172;53.022;7.012;2023-11-21T05:54:58;8.70;99.90
54260;DHT22;40172;53.022;7.012;2023-11-21T05:57:23;8.70;99.90
54260;DHT22;40172;53.022;7.012;2023-11-21T05:59:49;8.70;99.90
54260;DHT22;40172;53.022;7.012;2023-11-21T06:02:14;8.70;99.90
54260;DHT22;40172;53.022;7.012;2023-11-21T06:04:40;8.70;99.90
54260;DHT22;40172;53.022;7.012;2023-11-21T06:07:05;8.70;99.90
54260;DHT22;40172;53.022;7.012;2023-11-21T06:09:31;8.70;99.90
54260;DHT22;40172;53.022;7.012;2023-11-21T06:11:57;8.70;99.90
54260;DHT22;40172;53.022;7.012;2023-11-21T06:14:22;8.70;99.90
54260;DHT22;40172;53.022;7.012;2023-11-21T06:16:48;8.70;99.90
54260;DHT22;40172;53.022;7.012;2023-11-21T06:19:13;8.70;99.90
54260;DHT22;40172;53.022;7.012;2023-11-21T06:21:40;8.70;99.90
54260;DHT22;40172;53.022;7.012;2023-11-21T06:24:06;8.70;99.90
54260;DHT22;40172;53.022;7.012;2023-11-21T06:26:32;8.70;99.90
54260;DHT22;40172;53.022;7.012;2023-11-21T06:28:58;8.80;99.90
54260;DHT22;40172;53.022;7.012;2023-11-21T06:31:24;8.70;99.90
54260;DHT22;40172;53.022;7.012;2023-11-21T06:33:49;8.80;99.90
54260;DHT22;40172;53.022;7.012;2023-11-21T06:36:17;8.70;99.90
54260;DHT22;40172;53.022;7.012;2023-11-21T06:38:42;8.70;99.90
54260;DHT22;40172;53.022;7.012;2023-11-21T06:41:08;8.80;99.90
54260;DHT22;40172;53.022;7.012;2023-11-21T06:43:33;8.80;99.90
54260;DHT22;40172;53.022;7.012;2023-11-21T06:45:59;8.70;99.90
54260;DHT22;40172;53.022;7.012;2023-11-21T06:48:25;8.80;99.90
54260;DHT22;40172;53.022;7.012;2023-11-21T06:50:50;8.80;99.90
54260;DHT22;40172;53.022;7.012;2023-11-21T06:53:17;8.80;99.90
54260;DHT22;40172;53.022;7.012;2023-11-21T06:55:43;8.70;99.90
54260;DHT22;40172;53.022;7.012;2023-11-21T06:58:08;8.80;99.90
54260;DHT22;40172;53.022;7.012;2023-11-21T07:00:34;8.80;99.90
54260;DHT22;40172;53.022;7.012;2023-11-21T07:02:59;8.80;99.90
54260;DHT22;40172;53.022;7.012;2023-11-21T07:05:25;8.80;99.90
54260;DHT22;40172;53.022;7.012;2023-11-21T07:07:50;8.70;99.90
54260;DHT22;40172;53.022;7.012;2023-11-21T07:10:16;8.70;99.90
54260;DHT22;40172;53.022;7.012;2023-11-21T07:12:42;8.70;99.90
54260;DHT22;40172;53.022;7.012;2023-11-21T07:15:07;8.70;99.90
54260;DHT22;40172;53.022;7.012;2023-11-21T07:17:37;8.60;99.90
54260;DHT22;40172;53.022;7.012;2023-11-21T07:20:03;8.60;99.90
54260;DHT22;40172;53.022;7.012;2023-11-21T07:22:28;8.60;99.90
54260;DHT22;40172;53.022;7.012;2023-11-21T07:24:55;8.60;99.90
54260;DHT22;40172;53.022;7.012;2023-11-21T07:27:21;8.50;99.90
54260;DHT22;40172;53.022;7.012;2023-11-21T07:29:47;8.50;99.90
54260;DHT22;40172;53.022;7.012;2023-11-21T07:32:13;8.60;99.90
54260;DHT22;40172;53.022;7.012;2023-11-21T07:34:40;8.40;99.90
54260;DHT22;40172;53.022;7.012;2023-11-21T07:37:06;8.50;99.90
54260;DHT22;40172;53.022;7.012;2023-11-21T07:39:32;8.70;99.90
54260;DHT22;40172;53.022;7.012;2023-11-21T07:41:57;8.40;99.90
54260;DHT22;40172;53.022;7.012;2023-11-21T07:44:23;8.40;99.90
54260;DHT22;40172;53.022;7.012;2023-11-21T07:46:49;8.40;99.90
54260;DHT22;40172;53.022;7.012;2023-11-21T07:49:17;8.30;99.90
54260;DHT22;40172;53.022;7.012;2023-11-21T07:51:45;8.30;99.90
54260;DHT22;40172;53.022;7.012;2023-11-21T07:54:11;9.20;99.90
54260;DHT22;40172;53.022;7.012;2023-11-21T07:56:36;8.30;99.90
54260;DHT22;40172;53.022;7.012;2023-11-21T07:59:02;8.40;99.90
54260;DHT22;40172;53.022;7.012;2023-11-21T08:01:28;8.40;99.90
54260;DHT22;40172;53.022;7.012;2023-11-21T08:03:54;9.20;99.90
54260;DHT22;40172;53.022;7.012;2023-11-21T08:06:23;8.30;99.90
54260;DHT22;40172;53.022;7.012;2023-11-21T08:08:49;8.30;99.90
54260;DHT22;40172;53.022;7.012;2023-11-21T08:11:14;8.40;99.90
54260;DHT22;40172;53.022;7.012;2023-11-21T08:13:40;8.30;99.90
54260;DHT22;40172;53.022;7.012;2023-11-21T08:16:05;8.20;99.90
54260;DHT22;40172;53.022;7.012;2023-11-21T08:18:32;8.30;99.90
54260;DHT22;40172;53.022;7.012;2023-11-21T08:20:59;8.30;99.90
54260;DHT22;40172;53.022;7.012;2023-11-21T08:23:25;8.40;99.90
54260;DHT22;40172;53.022;7.012;2023-11-21T08:25:51;8.30;99.90
54260;DHT22;40172;53.022;7.012;2023-11-21T08:28:18;8.30;99.90
54260;DHT22;40172;53.022;7.012;2023-11-21T08:30:43;8.30;99.90
54260;DHT22;40172;53.022;7.012;2023-11-21T08:33:09;8.30;99.90
54260;DHT22;40172;53.022;7.012;2023-11-21T08:35:35;8.30;99.90
54260;DHT22;40172;53.022;7.012;2023-11-21T08:38:01;9.00;99.90
54260;DHT22;40172;53.022;7.012;2023-11-21T08:40:27;8.30;99.90
54260;DHT22;40172;53.022;7.012;2023-11-21T08:42:52;8.20;99.90
54260;DHT22;40172;53.022;7.012;2023-11-21T08:45:18;8.20;99.90
54260;DHT22;40172;53.022;7.012;2023-11-21T08:47:44;8.30;99.90
54260;DHT22;40172;53.022;7.012;2023-11-21T08:50:10;8.30;99.90
54260;DHT22;40172;53.022;7.012;2023-11-21T08:52:37;8.30;99.90
54260;DHT22;40172;53.022;7.012;2023-11-21T08:55:03;8.40;99.90
54260;DHT22;40172;53.022;7.012;2023-11-21T08:57:36;8.40;99.90
54260;DHT22;40172;53.022;7.012;2023-11-21T09:00:05;8.40;99.90
54260;DHT22;40172;53.022;7.012;2023-11-21T09:02:40;8.30;99.90
54260;DHT22;40172;53.022;7.012;2023-11-21T09:05:09;8.30;99.90
54260;DHT22;40172;53.022;7.012;2023-11-21T09:07:36;8.30;99.90
54260;DHT22;40172;53.022;7.012;2023-11-21T09:10:05;8.30;99.90
54260;DHT22;40172;53.022;7.012;2023-11-21T09:12:34;8.30;99.90
54260;DHT22;40172;53.022;7.012;2023-11-21T09:15:04;8.30;99.90
54260;DHT22;40172;53.022;7.012;2023-11-21T09:17:30;8.30;99.90
54260;DHT22;40172;53.022;7.012;2023-11-21T09:19:55;8.30;99.90
54260;DHT22;40172;53.022;7.012;2023-11-21T09:22:22;8.20;99.90
54260;DHT22;40172;53.022;7.012;2023-11-21T09:24:50;8.20;99.90
54260;DHT22;40172;53.022;7.012;2023-11-21T09:27:16;8.20;99.90
54260;DHT22;40172;53.022;7.012;2023-11-21T09:29:42;8.20;99.90
54260;DHT22;40172;53.022;7.012;2023-11-21T09:32:08;8.30;99.90
54260;DHT22;40172;53.022;7.012;2023-11-21T09:34:37;8.30;99.90
54260;DHT22;40172;53.022;7.012;2023-11-21T09:37:07;8.30;99.90
54260;DHT22;40172;53.022;7.012;2023-11-21T09:39:33;8.30;99.90
54260;DHT22;40172;53.022;7.012;2023-11-21T09:44:32;8.30;99.90
54260;DHT22;40172;53.022;7.012;2023-11-21T09:47:00;8.30;99.90
54260;DHT22;40172;53.022;7.012;2023-11-21T09:49:27;8.30;99.90
54260;DHT22;40172;53.022;7.012;2023-11-21T09:51:57;8.20;99.90
54260;DHT22;40172;53.022;7.012;2023-11-21T09:54:23;8.20;99.90
54260;DHT22;40172;53.022;7.012;2023-11-21T09:56:50;8.20;99.90
54260;DHT22;40172;53.022;7.012;2023-11-21T09:59:15;8.20;99.90
54260;DHT22;40172;53.022;7.012;2023-11-21T10:01:41;8.20;99.90
54260;DHT22;40172;53.022;7.012;2023-11-21T10:04:07;8.20;99.90
54260;DHT22;40172;53.022;7.012;2023-11-21T10:06:40;8.20;99.90
54260;DHT22;40172;53.022;7.012;2023-11-21T10:09:09;8.20;99.90
54260;DHT22;40172;53.022;7.012;2023-11-21T10:11:43;8.20;99.90
54260;DHT22;40172;53.022;7.012;2023-11-21T10:14:12;8.30;99.90
54260;DHT22;40172;53.022;7.012;2023-11-21T10:16:39;8.30;99.90
54260;DHT22;40172;53.022;7.012;2023-11-21T10:19:06;9.30;99.90
54260;DHT22;40172;53.022;7.012;2023-11-21T10:21:32;8.40;99.90
54260;DHT22;40172;53.022;7.012;2023-11-21T10:23:59;8.50;99.90
54260;DHT22;40172;53.022;7.012;2023-11-21T10:26:25;8.40;99.90
54260;DHT22;40172;53.022;7.012;2023-11-21T10:28:55;8.40;99.90
54260;DHT22;40172;53.022;7.012;2023-11-21T10:31:21;8.40;99.90
54260;DHT22;40172;53.022;7.012;2023-11-21T10:33:49;8.40;99.90
54260;DHT22;40172;53.022;7.012;2023-11-21T10:36:24;8.50;99.90
54260;DHT22;40172;53.022;7.012;2023-11-21T10:38:50;8.50;99.90
54260;DHT22;40172;53.022;7.012;2023-11-21T10:41:18;8.50;99.90
54260;DHT22;40172;53.022;7.012;2023-11-21T10:43:44;8.50;99.90
54260;DHT22;40172;53.022;7.012;2023-11-21T10:46:09;8.50;99.90
54260;DHT22;40172;53.022;7.012;2023-11-21T10:48:35;8.50;99.90
54260;DHT22;40172;53.022;7.012;2023-11-21T10:51:01;8.60;99.90
54260;DHT22;40172;53.022;7.012;2023-11-21T10:53:31;8.60;99.90
54260;DHT22;40172;53.022;7.012;2023-11-21T10:56:06;8.60;99.90
54260;DHT22;40172;53.022;7.012;2023-11-21T10:58:33;8.60;99.90
54260;DHT22;40172;53.022;7.012;2023-11-21T11:01:00;8.70;99.90
54260;DHT22;40172;53.022;7.012;2023-11-21T11:03:26;8.80;99.90
54260;DHT22;40172;53.022;7.012;2023-11-21T11:05:52;8.80;99.90
54260;DHT22;40172;53.022;7.012;2023-11-21T11:08:19;8.80;99.90
54260;DHT22;40172;53.022;7.012;2023-11-21T11:10:45;8.80;99.90
54260;DHT22;40172;53.022;7.012;2023-11-21T11:13:14;8.80;99.90
54260;DHT22;40172;53.022;7.012;2023-11-21T11:15:41;8.70;99.90
54260;DHT22;40172;53.022;7.012;2023-11-21T11:18:07;8.70;99.90
54260;DHT22;40172;53.022;7.012;2023-11-21T11:20:34;8.60;99.90
54260;DHT22;40172;53.022;7.012;2023-11-21T11:25:53;8.60;99.90
54260;DHT22;40172;53.022;7.012;2023-11-21T11:28:27;8.60;99.90
54260;DHT22;40172;53.022;7.012;2023-11-21T11:31:04;8.60;99.90
54260;DHT22;40172;53.022;7.012;2023-11-21T11:33:33;8.60;99.90
54260;DHT22;40172;53.022;7.012;2023-11-21T11:36:03;8.70;99.90
54260;DHT22;40172;53.022;7.012;2023-11-21T11:38:31;8.80;99.90
54260;DHT22;40172;53.022;7.012;2023-11-21T11:40:56;8.90;99.90
54260;DHT22;40172;53.022;7.012;2023-11-21T11:43:25;9.00;99.90
54260;DHT22;40172;53.022;7.012;2023-11-21T11:45:51;9.00;99.90
54260;DHT22;40172;53.022;7.012;2023-11-21T11:48:19;9.10;99.90
54260;DHT22;40172;53.022;7.012;2023-11-21T11:51:05;9.00;99.90
54260;DHT22;40172;53.022;7.012;2023-11-21T11:53:37;8.90;99.90
54260;DHT22;40172;53.022;7.012;2023-11-21T11:56:24;8.90;99.90
54260;DHT22;40172;53.022;7.012;2023-11-21T11:58:54;8.80;99.90
54260;DHT22;40172;53.022;7.012;2023-11-21T12:01:19;8.80;99.90
54260;DHT22;40172;53.022;7.012;2023-11-21T12:04:16;8.70;99.90
54260;DHT22;40172;53.022;7.012;2023-11-21T12:06:34;8.70;99.90
54260;DHT22;40172;53.022;7.012;2023-11-21T12:09:03;8.70;99.90
54260;DHT22;40172;53.022;7.012;2023-11-21T12:11:32;8.70;99.90
54260;DHT22;40172;53.022;7.012;2023-11-21T12:13:58;8.80;99.90
54260;DHT22;40172;53.022;7.012;2023-11-21T12:16:27;8.80;99.90
54260;DHT22;40172;53.022;7.012;2023-11-21T12:18:53;8.80;99.90
54260;DHT22;40172;53.022;7.012;2023-11-21T12:21:19;8.80;99.90
54260;DHT22;40172;53.022;7.012;2023-11-21T12:23:45;8.80;99.90
54260;DHT22;40172;53.022;7.012;2023-11-21T12:26:13;8.80;99.90
54260;DHT22;40172;53.022;7.012;2023-11-21T12:28:39;8.80;99.90
54260;DHT22;40172;53.022;7.012;2023-11-21T12:31:04;8.80;99.90
54260;DHT22;40172;53.022;7.012;2023-11-21T12:33:32;8.80;99.90
54260;DHT22;40172;53.022;7.012;2023-11-21T12:35:58;8.80;99.90
54260;DHT22;40172;53.022;7.012;2023-11-21T12:38:23;8.90;99.90
54260;DHT22;40172;53.022;7.012;2023-11-21T12:40:50;8.90;99.90
54260;DHT22;40172;53.022;7.012;2023-11-21T12:43:15;8.80;99.90
54260;DHT22;40172;53.022;7.012;2023-11-21T12:45:42;9.00;99.90
54260;DHT22;40172;53.022;7.012;2023-11-21T12:48:09;9.00;99.90
54260;DHT22;40172;53.022;7.012;2023-11-21T12:50:37;9.00;99.90
54260;DHT22;40172;53.022;7.012;2023-11-21T12:53:06;9.10;99.90
54260;DHT22;40172;53.022;7.012;2023-11-21T12:55:34;9.10;99.90
54260;DHT22;40172;53.022;7.012;2023-11-21T12:58:03;9.10;99.90
54260;DHT22;40172;53.022;7.012;2023-11-21T13:00:36;9.10;99.90
54260;DHT22;40172;53.022;7.012;2023-11-21T13:03:05;9.10;99.90
54260;DHT22;40172;53.022;7.012;2023-11-21T13:05:32;9.10;99.90
54260;DHT22;40172;53.022;7.012;2023-11-21T13:07:59;9.10;99.90
54260;DHT22;40172;53.022;7.012;2023-11-21T13:10:25;9.20;99.90
54260;DHT22;40172;53.022;7.012;2023-11-21T13:12:52;9.20;99.90
54260;DHT22;40172;53.022;7.012;2023-11-21T13:15:18;9.30;99.90
54260;DHT22;40172;53.022;7.012;2023-11-21T13:17:45;9.30;99.90
54260;DHT22;40172;53.022;7.012;2023-11-21T13:20:11;9.20;99.90
54260;DHT22;40172;53.022;7.012;2023-11-21T13:25:14;9.10;99.90
54260;DHT22;40172;53.022;7.012;2023-11-21T13:27:40;10.30;99.90
54260;DHT22;40172;53.022;7.012;2023-11-21T13:30:08;8.90;99.90
54260;DHT22;40172;53.022;7.012;2023-11-21T13:32:33;8.90;99.90
54260;DHT22;40172;53.022;7.012;2023-11-21T13:34:59;8.80;99.90
54260;DHT22;40172;53.022;7.012;2023-11-21T13:37:25;8.80;99.90
54260;DHT22;40172;53.022;7.012;2023-11-21T13:39:53;8.70;99.90
54260;DHT22;40172;53.022;7.012;2023-11-21T13:42:20;8.70;99.90
54260;DHT22;40172;53.022;7.012;2023-11-21T13:44:55;8.60;99.90
54260;DHT22;40172;53.022;7.012;2023-11-21T13:47:21;8.60;99.90
54260;DHT22;40172;53.022;7.012;2023-11-21T13:49:50;8.60;99.90
54260;DHT22;40172;53.022;7.012;2023-11-21T13:52:15;8.60;99.90
54260;DHT22;40172;53.022;7.012;2023-11-21T13:54:43;8.60;99.90
54260;DHT22;40172;53.022;7.012;2023-11-21T13:57:09;8.50;99.90
54260;DHT22;40172;53.022;7.012;2023-11-21T13:59:35;8.50;99.90
54260;DHT22;40172;53.022;7.012;2023-11-21T14:02:02;8.40;99.90
54260;DHT22;40172;53.022;7.012;2023-11-21T14:04:42;8.40;99.90
54260;DHT22;40172;53.022;7.012;2023-11-21T14:07:17;8.40;99.90
54260;DHT22;40172;53.022;7.012;2023-11-21T14:09:51;8.30;99.90
54260;DHT22;40172;53.022;7.012;2023-11-21T14:12:18;8.20;99.90
54260;DHT22;40172;53.022;7.012;2023-11-21T14:14:43;8.20;99.90
54260;DHT22;40172;53.022;7.012;2023-11-21T14:17:10;8.10;99.90
54260;DHT22;40172;53.022;7.012;2023-11-21T14:19:36;8.50;99.90
54260;DHT22;40172;53.022;7.012;2023-11-21T14:22:05;7.90;99.90
54260;DHT22;40172;53.022;7.012;2023-11-21T14:24:33;7.90;99.90
54260;DHT22;40172;53.022;7.012;2023-11-21T14:26:59;7.90;99.90
54260;DHT22;40172;53.022;7.012;2023-11-21T14:29:24;7.80;99.90
54260;DHT22;40172;53.022;7.012;2023-11-21T14:31:50;7.80;99.90
54260;DHT22;40172;53.022;7.012;2023-11-21T14:34:16;8.50;99.90
54260;DHT22;40172;53.022;7.012;2023-11-21T14:36:42;7.70;99.90
54260;DHT22;40172;53.022;7.012;2023-11-21T14:39:09;7.70;99.90
54260;DHT22;40172;53.022;7.012;2023-11-21T14:41:48;7.70;99.90
54260;DHT22;40172;53.022;7.012;2023-11-21T14:44:14;7.70;99.90
54260;DHT22;40172;53.022;7.012;2023-11-21T14:46:40;7.60;99.90
54260;DHT22;40172;53.022;7.012;2023-11-21T14:49:10;7.60;99.90
54260;DHT22;40172;53.022;7.012;2023-11-21T14:51:45;7.60;99.90
54260;DHT22;40172;53.022;7.012;2023-11-21T14:54:37;7.60;99.90
54260;DHT22;40172;53.022;7.012;2023-11-21T14:57:14;7.60;99.90
54260;DHT22;40172;53.022;7.012;2023-11-21T14:59:44;7.60;99.90
54260;DHT22;40172;53.022;7.012;2023-11-21T15:02:12;7.60;99.90
54260;DHT22;40172;53.022;7.012;2023-11-21T15:04:43;7.50;99.90
54260;DHT22;40172;53.022;7.012;2023-11-21T15:07:08;7.50;99.90
54260;DHT22;40172;53.022;7.012;2023-11-21T15:09:34;7.50;99.90
54260;DHT22;40172;53.022;7.012;2023-11-21T15:12:04;7.50;99.90
54260;DHT22;40172;53.022;7.012;2023-11-21T15:14:39;7.40;99.90
54260;DHT22;40172;53.022;7.012;2023-11-21T15:17:05;7.40;99.90
54260;DHT22;40172;53.022;7.012;2023-11-21T15:19:31;7.40;99.90
54260;DHT22;40172;53.022;7.012;2023-11-21T15:21:57;7.40;99.90
54260;DHT22;40172;53.022;7.012;2023-11-21T15:24:23;7.40;99.90
54260;DHT22;40172;53.022;7.012;2023-11-21T15:26:49;7.30;99.90
54260;DHT22;40172;53.022;7.012;2023-11-21T15:29:15;7.30;99.90
54260;DHT22;40172;53.022;7.012;2023-11-21T15:31:41;7.20;99.90
54260;DHT22;40172;53.022;7.012;2023-11-21T15:34:11;7.20;99.90
54260;DHT22;40172;53.022;7.012;2023-11-21T15:36:37;7.10;99.90
54260;DHT22;40172;53.022;7.012;2023-11-21T15:39:02;7.00;99.90
54260;DHT22;40172;53.022;7.012;2023-11-21T15:41:28;7.00;99.90
54260;DHT22;40172;53.022;7.012;2023-11-21T15:43:53;6.90;99.90
54260;DHT22;40172;53.022;7.012;2023-11-21T15:46:19;6.80;99.90
54260;DHT22;40172;53.022;7.012;2023-11-21T15:48:44;6.70;99.90
54260;DHT22;40172;53.022;7.012;2023-11-21T15:51:16;6.60;99.90